Decoded Metar for UHWW (VLADIVOSTOK in RUSSIA) (IATA:VVO) | Meteo·Mobile Aviation Weather
aviador You're here:

UHWW Decoded Metar

VLADIVOSTOK in RUSSIA
Report Time2019-01-20 11:30:00
UTC Time2019-01-20 11:47:23
Flight Rules vfr VFR
Wind310° at 8 kt
W.Decomp.*RWY 25: 2.9 kt HW 7.5 kt RCW
W.Rank310° ranks 12
Current wind is above 310° avg. (6.5)
Visibility9999 m
Phenomena:N/A
Clouds:N/A
Expected CloudBase > 4,800 ft AGL from Temp-Dew spread
CeilingNone
Temp-10°C (ISA -24)
Dew Point-22°C (37% RH)
AAT-16.5°C
QNH1016 hPa
Density Alt-2,454 ft
Elevation604 ft
Report Wrong Elevation
Raw Report
METAR UHWW 201130Z 31004MPS 9999 NSC M10/M22 Q1016 R25L/0///70 NOSIG
RMK QFE761=

Extra information for UHWW:More info

Metar Taf Metar & Taf Last 4 Metars F.Rules Stats Wind Profile Meteogram Temp Stats Airport Information Weather charts Add Link Nearby VenuesMetar ALERT Operation Metar Decoded Social comments